sensor_id;sensor_type;location;lat;lon;timestamp;pressure;altitude;pressure_sealevel;temperature;humidity
63652;BME280;49801;37.536;-122.304;2023-02-04T00:00:15;102233.53;;;12.11;91.34
63652;BME280;49801;37.536;-122.304;2023-02-04T00:00:41;102230.66;;;12.12;91.66
63652;BME280;49801;37.536;-122.304;2023-02-04T00:01:07;102229.97;;;12.10;91.68
63652;BME280;49801;37.536;-122.304;2023-02-04T00:01:34;102231.66;;;12.11;91.44
63652;BME280;49801;37.536;-122.304;2023-02-04T00:02:00;102235.06;;;12.13;91.20
63652;BME280;49801;37.536;-122.304;2023-02-04T00:02:26;102227.66;;;12.15;91.32
63652;BME280;49801;37.536;-122.304;2023-02-04T00:02:52;102227.34;;;12.18;91.33
63652;BME280;49801;37.536;-122.304;2023-02-04T00:03:18;102226.06;;;12.23;91.81
63652;BME280;49801;37.536;-122.304;2023-02-04T00:03:45;102228.63;;;12.24;91.68
63652;BME280;49801;37.536;-122.304;2023-02-04T00:04:14;102225.38;;;12.21;90.99
63652;BME280;49801;37.536;-122.304;2023-02-04T00:04:40;102229.34;;;12.16;90.91
63652;BME280;49801;37.536;-122.304;2023-02-04T00:05:08;102239.38;;;12.16;91.06
63652;BME280;49801;37.536;-122.304;2023-02-04T00:05:34;102230.81;;;12.11;91.03
63652;BME280;49801;37.536;-122.304;2023-02-04T00:06:00;102232.25;;;12.05;90.89
63652;BME280;49801;37.536;-122.304;2023-02-04T00:06:27;102235.97;;;12.04;91.11
63652;BME280;49801;37.536;-122.304;2023-02-04T00:06:53;102241.09;;;12.07;91.36
63652;BME280;49801;37.536;-122.304;2023-02-04T00:07:19;102233.94;;;12.06;91.22
63652;BME280;49801;37.536;-122.304;2023-02-04T00:07:46;102218.84;;;11.94;91.21
63652;BME280;49801;37.536;-122.304;2023-02-04T00:08:12;102232.84;;;11.99;91.16
63652;BME280;49801;37.536;-122.304;2023-02-04T00:08:38;102222.53;;;11.93;91.46
63652;BME280;49801;37.536;-122.304;2023-02-04T00:09:04;102238.69;;;12.04;91.55
63652;BME280;49801;37.536;-122.304;2023-02-04T00:09:30;102232.41;;;12.04;91.69
63652;BME280;49801;37.536;-122.304;2023-02-04T00:09:57;102229.38;;;12.07;91.84
63652;BME280;49801;37.536;-122.304;2023-02-04T00:10:23;102229.38;;;12.07;92.00
63652;BME280;49801;37.536;-122.304;2023-02-04T00:10:49;102237.38;;;12.08;91.58
63652;BME280;49801;37.536;-122.304;2023-02-04T00:11:15;102230.53;;;12.04;91.88
63652;BME280;49801;37.536;-122.304;2023-02-04T00:11:41;102231.84;;;12.00;91.48
63652;BME280;49801;37.536;-122.304;2023-02-04T00:12:08;102232.84;;;11.99;91.38
63652;BME280;49801;37.536;-122.304;2023-02-04T00:12:35;102234.28;;;11.93;91.54
63652;BME280;49801;37.536;-122.304;2023-02-04T00:13:02;102233.13;;;11.96;91.64
63652;BME280;49801;37.536;-122.304;2023-02-04T00:13:28;102231.09;;;11.88;91.67
63652;BME280;49801;37.536;-122.304;2023-02-04T00:13:55;102222.69;;;11.81;91.53
63652;BME280;49801;37.536;-122.304;2023-02-04T00:14:21;102232.53;;;11.82;91.55
63652;BME280;49801;37.536;-122.304;2023-02-04T00:14:47;102220.81;;;11.72;91.57
63652;BME280;49801;37.536;-122.304;2023-02-04T00:15:13;102226.09;;;11.83;91.49
63652;BME280;49801;37.536;-122.304;2023-02-04T00:15:39;102225.97;;;11.75;91.60
63652;BME280;49801;37.536;-122.304;2023-02-04T00:16:05;102234.84;;;11.68;91.29
63652;BME280;49801;37.536;-122.304;2023-02-04T00:16:32;102234.56;;;11.71;91.90
63652;BME280;49801;37.536;-122.304;2023-02-04T00:16:58;102232.69;;;11.71;92.08
63652;BME280;49801;37.536;-122.304;2023-02-04T00:17:24;102228.97;;;11.72;92.03
63652;BME280;49801;37.536;-122.304;2023-02-04T00:17:50;102223.41;;;11.64;91.78
63652;BME280;49801;37.536;-122.304;2023-02-04T00:18:16;102227.41;;;11.60;91.86
63652;BME280;49801;37.536;-122.304;2023-02-04T00:18:42;102232.81;;;11.60;92.18
63652;BME280;49801;37.536;-122.304;2023-02-04T00:19:09;102232.41;;;11.64;92.10
63652;BME280;49801;37.536;-122.304;2023-02-04T00:19:35;102229.41;;;11.58;92.19
63652;BME280;49801;37.536;-122.304;2023-02-04T00:20:02;102232.25;;;11.56;92.30
63652;BME280;49801;37.536;-122.304;2023-02-04T00:20:28;102232.53;;;11.53;92.27
63652;BME280;49801;37.536;-122.304;2023-02-04T00:20:54;102228.97;;;11.53;92.71
63652;BME280;49801;37.536;-122.304;2023-02-04T00:21:20;102233.41;;;11.54;92.82
63652;BME280;49801;37.536;-122.304;2023-02-04T00:21:47;102222.97;;;11.49;92.48
63652;BME280;49801;37.536;-122.304;2023-02-04T00:22:13;102230.28;;;11.49;92.67
63652;BME280;49801;37.536;-122.304;2023-02-04T00:22:39;102233.97;;;11.48;92.50
63652;BME280;49801;37.536;-122.304;2023-02-04T00:23:05;102217.97;;;11.44;92.63
63652;BME280;49801;37.536;-122.304;2023-02-04T00:23:31;102221.41;;;11.47;92.68
63652;BME280;49801;37.536;-122.304;2023-02-04T00:23:57;102222.84;;;11.51;92.64
63652;BME280;49801;37.536;-122.304;2023-02-04T00:24:23;102221.13;;;11.50;92.87
63652;BME280;49801;37.536;-122.304;2023-02-04T00:24:50;102227.09;;;11.53;92.56
63652;BME280;49801;37.536;-122.304;2023-02-04T00:25:16;102223.69;;;11.51;92.75
63652;BME280;49801;37.536;-122.304;2023-02-04T00:25:42;102227.09;;;11.53;92.66
63652;BME280;49801;37.536;-122.304;2023-02-04T00:26:08;102226.97;;;11.55;92.46
63652;BME280;49801;37.536;-122.304;2023-02-04T00:26:35;102221.41;;;11.56;92.45
63652;BME280;49801;37.536;-122.304;2023-02-04T00:27:01;102227.81;;;11.65;92.39
63652;BME280;49801;37.536;-122.304;2023-02-04T00:27:28;102229.13;;;11.61;92.08
63652;BME280;49801;37.536;-122.304;2023-02-04T00:27:54;102224.53;;;11.52;92.12
63652;BME280;49801;37.536;-122.304;2023-02-04T00:28:20;102230.28;;;11.49;92.33
63652;BME280;49801;37.536;-122.304;2023-02-04T00:28:46;102228.69;;;11.46;92.31
63652;BME280;49801;37.536;-122.304;2023-02-04T00:29:12;102226.53;;;11.50;92.43
63652;BME280;49801;37.536;-122.304;2023-02-04T00:29:39;102218.84;;;11.55;92.22
63652;BME280;49801;37.536;-122.304;2023-02-04T00:30:05;102230.69;;;11.54;91.98
63652;BME280;49801;37.536;-122.304;2023-02-04T00:30:32;102233.09;;;11.57;92.15
63652;BME280;49801;37.536;-122.304;2023-02-04T00:30:58;102232.13;;;11.58;92.56
63652;BME280;49801;37.536;-122.304;2023-02-04T00:31:24;102232.81;;;11.60;92.45
63652;BME280;49801;37.536;-122.304;2023-02-04T00:31:50;102228.84;;;11.64;92.60
63652;BME280;49801;37.536;-122.304;2023-02-04T00:32:16;102234.84;;;11.68;92.85
63652;BME280;49801;37.536;-122.304;2023-02-04T00:32:43;102225.41;;;11.72;92.55
63652;BME280;49801;37.536;-122.304;2023-02-04T00:33:09;102231.66;;;11.72;92.50
63652;BME280;49801;37.536;-122.304;2023-02-04T00:33:35;102229.97;;;11.71;92.28
63652;BME280;49801;37.536;-122.304;2023-02-04T00:34:01;102224.56;;;11.71;91.79
63652;BME280;49801;37.536;-122.304;2023-02-04T00:34:27;102224.84;;;11.68;92.17
63652;BME280;49801;37.536;-122.304;2023-02-04T00:34:54;102231.66;;;11.72;91.78
63652;BME280;49801;37.536;-122.304;2023-02-04T00:35:20;102229.69;;;11.74;91.92
63652;BME280;49801;37.536;-122.304;2023-02-04T00:35:47;102226.97;;;11.74;92.17
63652;BME280;49801;37.536;-122.304;2023-02-04T00:36:13;102217.25;;;11.81;91.76
63652;BME280;49801;37.536;-122.304;2023-02-04T00:36:39;102227.97;;;11.83;91.92
63652;BME280;49801;37.536;-122.304;2023-02-04T00:37:06;102220.81;;;11.82;91.84
63652;BME280;49801;37.536;-122.304;2023-02-04T00:37:32;102222.41;;;11.85;92.64
63652;BME280;49801;37.536;-122.304;2023-02-04T00:37:58;102220.25;;;11.88;92.50
63652;BME280;49801;37.536;-122.304;2023-02-04T00:38:24;102211.09;;;11.89;92.03
63652;BME280;49801;37.536;-122.304;2023-02-04T00:38:50;102221.97;;;11.79;91.29
63652;BME280;49801;37.536;-122.304;2023-02-04T00:39:17;102199.41;;;11.59;91.52
63652;BME280;49801;37.536;-122.304;2023-02-04T00:39:43;102222.81;;;11.70;91.23
63652;BME280;49801;37.536;-122.304;2023-02-04T00:40:09;102224.84;;;11.68;91.54
63652;BME280;49801;37.536;-122.304;2023-02-04T00:40:36;102224.84;;;11.68;91.66
63652;BME280;49801;37.536;-122.304;2023-02-04T00:41:02;102182.28;;;11.49;91.81
63652;BME280;49801;37.536;-122.304;2023-02-04T00:41:28;102227.25;;;11.71;91.70
63652;BME280;49801;37.536;-122.304;2023-02-04T00:41:54;102224.56;;;11.71;91.45
63652;BME280;49801;37.536;-122.304;2023-02-04T00:42:20;102221.13;;;11.69;91.52
63652;BME280;49801;37.536;-122.304;2023-02-04T00:42:47;102198.28;;;11.52;91.59
63652;BME280;49801;37.536;-122.304;2023-02-04T00:43:13;102222.53;;;11.63;91.83
63652;BME280;49801;37.536;-122.304;2023-02-04T00:43:39;102220.28;;;11.59;91.73
63652;BME280;49801;37.536;-122.304;2023-02-04T00:44:05;102223.13;;;11.57;91.91
63652;BME280;49801;37.536;-122.304;2023-02-04T00:44:31;102229.41;;;11.58;91.78
63652;BME280;49801;37.536;-122.304;2023-02-04T00:44:58;102228.41;;;11.59;91.91
63652;BME280;49801;37.536;-122.304;2023-02-04T00:45:24;102223.97;;;11.58;92.15
63652;BME280;49801;37.536;-122.304;2023-02-04T00:45:50;102218.41;;;11.50;92.00
63652;BME280;49801;37.536;-122.304;2023-02-04T00:46:16;102225.97;;;11.56;92.33
63652;BME280;49801;37.536;-122.304;2023-02-04T00:46:42;102228.84;;;11.64;92.43
63652;BME280;49801;37.536;-122.304;2023-02-04T00:47:08;102227.53;;;11.68;92.81
63652;BME280;49801;37.536;-122.304;2023-02-04T00:47:34;102217.69;;;11.67;92.29
63652;BME280;49801;37.536;-122.304;2023-02-04T00:48:00;102226.56;;;11.69;92.69
63652;BME280;49801;37.536;-122.304;2023-02-04T00:48:27;102223.69;;;11.71;92.63
63652;BME280;49801;37.536;-122.304;2023-02-04T00:48:53;102226.25;;;11.72;92.45
63652;BME280;49801;37.536;-122.304;2023-02-04T00:49:20;102223.25;;;11.75;92.67
63652;BME280;49801;37.536;-122.304;2023-02-04T00:49:46;102221.41;;;11.76;92.49
63652;BME280;49801;37.536;-122.304;2023-02-04T00:50:12;102215.09;;;11.75;92.21
63652;BME280;49801;37.536;-122.304;2023-02-04T00:50:38;102217.41;;;11.70;91.92
63652;BME280;49801;37.536;-122.304;2023-02-04T00:51:04;102213.97;;;11.68;91.94
63652;BME280;49801;37.536;-122.304;2023-02-04T00:51:31;102217.41;;;11.70;91.91
63652;BME280;49801;37.536;-122.304;2023-02-04T00:51:57;102221.41;;;11.66;91.63
63652;BME280;49801;37.536;-122.304;2023-02-04T00:52:24;102212.56;;;11.64;91.83
63652;BME280;49801;37.536;-122.304;2023-02-04T00:52:50;102216.25;;;11.63;91.80
63652;BME280;49801;37.536;-122.304;2023-02-04T00:53:17;102220.56;;;11.66;91.93
63652;BME280;49801;37.536;-122.304;2023-02-04T00:53:43;102209.13;;;11.62;92.02
63652;BME280;49801;37.536;-122.304;2023-02-04T00:54:09;102217.69;;;11.67;91.84
63652;BME280;49801;37.536;-122.304;2023-02-04T00:54:35;102223.84;;;11.69;91.93
63652;BME280;49801;37.536;-122.304;2023-02-04T00:55:01;102222.13;;;11.68;92.11
63652;BME280;49801;37.536;-122.304;2023-02-04T00:55:28;102219.69;;;11.65;91.79
63652;BME280;49801;37.536;-122.304;2023-02-04T00:55:54;102223.09;;;11.67;92.13
63652;BME280;49801;37.536;-122.304;2023-02-04T00:56:20;102212.25;;;11.67;92.01
63652;BME280;49801;37.536;-122.304;2023-02-04T00:56:46;102219.69;;;11.65;92.10
63652;BME280;49801;37.536;-122.304;2023-02-04T00:57:12;102216.84;;;11.67;92.17
63652;BME280;49801;37.536;-122.304;2023-02-04T00:57:38;102213.97;;;11.68;92.43
63652;BME280;49801;37.536;-122.304;2023-02-04T00:58:05;102220.81;;;11.72;92.75
63652;BME280;49801;37.536;-122.304;2023-02-04T00:58:31;102222.53;;;11.73;92.60
63652;BME280;49801;37.536;-122.304;2023-02-04T00:58:57;102211.69;;;11.73;92.59
63652;BME280;49801;37.536;-122.304;2023-02-04T00:59:23;102217.13;;;11.73;92.64
63652;BME280;49801;37.536;-122.304;2023-02-04T00:59:49;102214.81;;;11.78;93.06
63652;BME280;49801;37.536;-122.304;2023-02-04T01:00:16;102208.97;;;11.73;92.78
63652;BME280;49801;37.536;-122.304;2023-02-04T01:00:43;102209.97;;;11.72;92.38
63652;BME280;49801;37.536;-122.304;2023-02-04T01:01:09;102217.69;;;11.67;92.50
63652;BME280;49801;37.536;-122.304;2023-02-04T01:01:35;102215.28;;;11.64;92.36
63652;BME280;49801;37.536;-122.304;2023-02-04T01:02:02;102211.13;;;11.60;92.46
63652;BME280;49801;37.536;-122.304;2023-02-04T01:02:28;102213.97;;;11.58;92.46
63652;BME280;49801;37.536;-122.304;2023-02-04T01:02:54;102217.25;;;11.62;92.26
63652;BME280;49801;37.536;-122.304;2023-02-04T01:03:20;102198.44;;;11.51;92.82
63652;BME280;49801;37.536;-122.304;2023-02-04T01:03:46;102223.09;;;11.67;92.73
63652;BME280;49801;37.536;-122.304;2023-02-04T01:04:12;102217.69;;;11.67;92.90
63652;BME280;49801;37.536;-122.304;2023-02-04T01:04:39;102217.13;;;11.63;92.82
63652;BME280;49801;37.536;-122.304;2023-02-04T01:05:07;102222.81;;;11.70;92.85
63652;BME280;49801;37.536;-122.304;2023-02-04T01:05:33;102214.25;;;11.75;92.93
63652;BME280;49801;37.536;-122.304;2023-02-04T01:05:59;102223.25;;;11.75;93.12
63652;BME280;49801;37.536;-122.304;2023-02-04T01:06:25;102217.97;;;11.74;92.72
63652;BME280;49801;37.536;-122.304;2023-02-04T01:06:51;102215.81;;;11.77;92.97
63652;BME280;49801;37.536;-122.304;2023-02-04T01:07:17;102218.97;;;11.73;92.49
63652;BME280;49801;37.536;-122.304;2023-02-04T01:07:43;102220.53;;;11.75;92.96
63652;BME280;49801;37.536;-122.304;2023-02-04T01:08:10;102223.09;;;11.77;92.74
63652;BME280;49801;37.536;-122.304;2023-02-04T01:08:36;102215.66;;;11.79;92.77
63652;BME280;49801;37.536;-122.304;2023-02-04T01:09:03;102218.25;;;11.80;92.41
63652;BME280;49801;37.536;-122.304;2023-02-04T01:09:29;102212.53;;;11.83;92.80
63652;BME280;49801;37.536;-122.304;2023-02-04T01:09:55;102222.22;;;11.86;92.89
63652;BME280;49801;37.536;-122.304;2023-02-04T01:10:21;102216.25;;;11.82;92.44
63652;BME280;49801;37.536;-122.304;2023-02-04T01:10:47;102215.38;;;11.82;92.28
63652;BME280;49801;37.536;-122.304;2023-02-04T01:11:14;102221.66;;;11.82;92.48
63652;BME280;49801;37.536;-122.304;2023-02-04T01:11:40;102219.97;;;11.81;92.24
63652;BME280;49801;37.536;-122.304;2023-02-04T01:12:06;102213.84;;;11.79;92.59
63652;BME280;49801;37.536;-122.304;2023-02-04T01:12:32;102219.25;;;11.79;92.32
63652;BME280;49801;37.536;-122.304;2023-02-04T01:12:58;102213.28;;;11.76;92.34
63652;BME280;49801;37.536;-122.304;2023-02-04T01:13:24;102220.53;;;11.75;92.32
63652;BME280;49801;37.536;-122.304;2023-02-04T01:13:51;102220.53;;;11.75;92.62
63652;BME280;49801;37.536;-122.304;2023-02-04T01:14:17;102218.53;;;11.77;92.48
63652;BME280;49801;37.536;-122.304;2023-02-04T01:14:43;102216.41;;;11.81;92.31
63652;BME280;49801;37.536;-122.304;2023-02-04T01:15:10;102209.69;;;11.75;92.40
63652;BME280;49801;37.536;-122.304;2023-02-04T01:15:36;102215.53;;;11.80;92.36
63652;BME280;49801;37.536;-122.304;2023-02-04T01:16:02;102223.66;;;11.80;92.45
63652;BME280;49801;37.536;-122.304;2023-02-04T01:16:28;102223.09;;;11.77;92.30
63652;BME280;49801;37.536;-122.304;2023-02-04T01:16:54;102208.00;;;11.74;92.47
63652;BME280;49801;37.536;-122.304;2023-02-04T01:17:20;102209.13;;;11.72;92.05
63652;BME280;49801;37.536;-122.304;2023-02-04T01:17:47;102223.66;;;11.80;92.32
63652;BME280;49801;37.536;-122.304;2023-02-04T01:18:13;102218.25;;;11.80;92.43
63652;BME280;49801;37.536;-122.304;2023-02-04T01:18:39;102215.94;;;11.86;92.99
63652;BME280;49801;37.536;-122.304;2023-02-04T01:19:06;102228.53;;;11.87;93.16
63652;BME280;49801;37.536;-122.304;2023-02-04T01:19:32;102220.41;;;11.87;92.71
63652;BME280;49801;37.536;-122.304;2023-02-04T01:19:58;102222.53;;;11.83;92.62
63652;BME280;49801;37.536;-122.304;2023-02-04T01:20:25;102221.66;;;11.82;92.49
63652;BME280;49801;37.536;-122.304;2023-02-04T01:20:51;102220.97;;;11.80;92.53
63652;BME280;49801;37.536;-122.304;2023-02-04T01:21:17;102232.53;;;11.82;92.57
63652;BME280;49801;37.536;-122.304;2023-02-04T01:21:43;102221.97;;;11.79;92.78
63652;BME280;49801;37.536;-122.304;2023-02-04T01:22:10;102226.09;;;11.83;92.46
63652;BME280;49801;37.536;-122.304;2023-02-04T01:22:36;102227.41;;;11.79;92.37
63652;BME280;49801;37.536;-122.304;2023-02-04T01:23:02;102229.25;;;11.79;92.43
63652;BME280;49801;37.536;-122.304;2023-02-04T01:23:29;102227.41;;;11.79;92.31
63652;BME280;49801;37.536;-122.304;2023-02-04T01:23:55;102211.25;;;11.68;92.33
63652;BME280;49801;37.536;-122.304;2023-02-04T01:24:21;102227.97;;;11.73;92.11
63652;BME280;49801;37.536;-122.304;2023-02-04T01:24:47;102233.97;;;11.77;92.37
63652;BME280;49801;37.536;-122.304;2023-02-04T01:25:15;102225.97;;;11.75;92.30
63652;BME280;49801;37.536;-122.304;2023-02-04T01:25:41;102234.38;;;11.72;92.40
63652;BME280;49801;37.536;-122.304;2023-02-04T01:26:07;102235.41;;;11.71;92.44
63652;BME280;49801;37.536;-122.304;2023-02-04T01:26:34;102229.28;;;11.69;92.56
63652;BME280;49801;37.536;-122.304;2023-02-04T01:27:00;102228.97;;;11.72;92.46
63652;BME280;49801;37.536;-122.304;2023-02-04T01:27:26;102220.84;;;11.62;92.44
63652;BME280;49801;37.536;-122.304;2023-02-04T01:27:52;102237.09;;;11.72;92.62
63652;BME280;49801;37.536;-122.304;2023-02-04T01:28:18;102243.53;;;11.71;92.92
63652;BME280;49801;37.536;-122.304;2023-02-04T01:28:45;102230.97;;;11.70;92.64
63652;BME280;49801;37.536;-122.304;2023-02-04T01:29:11;102234.28;;;11.64;92.54
63652;BME280;49801;37.536;-122.304;2023-02-04T01:29:37;102232.53;;;11.63;92.46
63652;BME280;49801;37.536;-122.304;2023-02-04T01:30:04;102235.53;;;11.60;92.56
63652;BME280;49801;37.536;-122.304;2023-02-04T01:30:31;102238.97;;;11.62;92.67
63652;BME280;49801;37.536;-122.304;2023-02-04T01:30:57;102226.56;;;11.59;92.72
63652;BME280;49801;37.536;-122.304;2023-02-04T01:31:23;102227.53;;;11.58;92.66
63652;BME280;49801;37.536;-122.304;2023-02-04T01:31:49;102234.56;;;11.61;92.88
63652;BME280;49801;37.536;-122.304;2023-02-04T01:32:15;102217.13;;;11.54;92.75
63652;BME280;49801;37.536;-122.304;2023-02-04T01:32:42;102220.56;;;11.56;92.95
63652;BME280;49801;37.536;-122.304;2023-02-04T01:33:08;102233.84;;;11.59;92.80
63652;BME280;49801;37.536;-122.304;2023-02-04T01:33:34;102210.84;;;11.43;92.74
63652;BME280;49801;37.536;-122.304;2023-02-04T01:34:00;102221.53;;;11.55;93.10
63652;BME280;49801;37.536;-122.304;2023-02-04T01:34:26;102223.84;;;11.59;92.94
63652;BME280;49801;37.536;-122.304;2023-02-04T01:34:53;102234.41;;;11.62;93.10
63652;BME280;49801;37.536;-122.304;2023-02-04T01:35:19;102213.41;;;11.55;93.40
63652;BME280;49801;37.536;-122.304;2023-02-04T01:35:45;102229.56;;;11.66;93.13
63652;BME280;49801;37.536;-122.304;2023-02-04T01:36:12;102229.28;;;11.69;93.33
63652;BME280;49801;37.536;-122.304;2023-02-04T01:36:38;102225.41;;;11.72;93.30
63652;BME280;49801;37.536;-122.304;2023-02-04T01:37:04;102226.56;;;11.69;93.10
63652;BME280;49801;37.536;-122.304;2023-02-04T01:37:31;102221.41;;;11.66;93.18
63652;BME280;49801;37.536;-122.304;2023-02-04T01:37:57;102229.13;;;11.61;92.93
63652;BME280;49801;37.536;-122.304;2023-02-04T01:38:23;102233.84;;;11.59;92.93
63652;BME280;49801;37.536;-122.304;2023-02-04T01:38:49;102225.97;;;11.56;92.73
63652;BME280;49801;37.536;-122.304;2023-02-04T01:39:16;102233.41;;;11.54;93.04
63652;BME280;49801;37.536;-122.304;2023-02-04T01:39:42;102228.00;;;11.54;93.00
63652;BME280;49801;37.536;-122.304;2023-02-04T01:40:09;102226.53;;;11.50;93.28
63652;BME280;49801;37.536;-122.304;2023-02-04T01:40:36;102230.69;;;11.54;93.33
63652;BME280;49801;37.536;-122.304;2023-02-04T01:41:03;102230.38;;;11.57;93.40
63652;BME280;49801;37.536;-122.304;2023-02-04T01:41:29;102225.97;;;11.56;93.08
63652;BME280;49801;37.536;-122.304;2023-02-04T01:41:56;102233.72;;;11.60;93.32
63652;BME280;49801;37.536;-122.304;2023-02-04T01:42:22;102229.97;;;11.61;93.82
63652;BME280;49801;37.536;-122.304;2023-02-04T01:42:49;102230.81;;;11.62;93.70
63652;BME280;49801;37.536;-122.304;2023-02-04T01:43:16;102230.13;;;11.60;93.63
63652;BME280;49801;37.536;-122.304;2023-02-04T01:43:44;102220.28;;;11.59;93.52
63652;BME280;49801;37.536;-122.304;2023-02-04T01:44:10;102230.53;;;11.65;93.51
63652;BME280;49801;37.536;-122.304;2023-02-04T01:44:36;102227.81;;;11.65;93.99
63652;BME280;49801;37.536;-122.304;2023-02-04T01:45:03;102229.56;;;11.66;94.06
63652;BME280;49801;37.536;-122.304;2023-02-04T01:45:31;102227.81;;;11.65;93.85
63652;BME280;49801;37.536;-122.304;2023-02-04T01:46:00;102228.53;;;11.67;93.83
63652;BME280;49801;37.536;-122.304;2023-02-04T01:46:27;102228.53;;;11.67;93.83
63652;BME280;49801;37.536;-122.304;2023-02-04T01:46:54;102230.25;;;11.68;93.78
63652;BME280;49801;37.536;-122.304;2023-02-04T01:47:21;102227.97;;;11.73;94.10
63652;BME280;49801;37.536;-122.304;2023-02-04T01:47:48;102225.97;;;11.75;94.35
63652;BME280;49801;37.536;-122.304;2023-02-04T01:48:15;102220.53;;;11.75;94.04
63652;BME280;49801;37.536;-122.304;2023-02-04T01:48:45;102221.25;;;11.77;93.98
63652;BME280;49801;37.536;-122.304;2023-02-04T01:49:11;102219.69;;;11.75;94.02
63652;BME280;49801;37.536;-122.304;2023-02-04T01:49:37;102214.81;;;11.69;93.58
63652;BME280;49801;37.536;-122.304;2023-02-04T01:50:05;102215.09;;;11.75;93.85
63652;BME280;49801;37.536;-122.304;2023-02-04T01:50:32;102208.56;;;11.68;93.29
63652;BME280;49801;37.536;-122.304;2023-02-04T01:51:04;102217.13;;;11.73;93.40
63652;BME280;49801;37.536;-122.304;2023-02-04T01:51:31;102215.38;;;11.72;93.60
63652;BME280;49801;37.536;-122.304;2023-02-04T01:51:58;102219.53;;;11.76;93.77
63652;BME280;49801;37.536;-122.304;2023-02-04T01:52:24;102201.13;;;11.70;93.65
63652;BME280;49801;37.536;-122.304;2023-02-04T01:52:50;102214.81;;;11.78;93.50
63652;BME280;49801;37.536;-122.304;2023-02-04T01:53:20;102217.13;;;11.73;93.16
63652;BME280;49801;37.536;-122.304;2023-02-04T01:53:47;102217.41;;;11.70;93.13
63652;BME280;49801;37.536;-122.304;2023-02-04T01:54:13;102212.56;;;11.64;92.94
63652;BME280;49801;37.536;-122.304;2023-02-04T01:54:40;102212.56;;;11.64;92.81
63652;BME280;49801;37.536;-122.304;2023-02-04T01:55:14;102221.69;;;11.63;92.95
63652;BME280;49801;37.536;-122.304;2023-02-04T01:55:41;102221.69;;;11.63;93.32
63652;BME280;49801;37.536;-122.304;2023-02-04T01:56:18;102221.41;;;11.66;92.99
63652;BME280;49801;37.536;-122.304;2023-02-04T01:56:46;102223.41;;;11.64;93.37
63652;BME280;49801;37.536;-122.304;2023-02-04T01:57:15;102201.41;;;11.48;93.36
63652;BME280;49801;37.536;-122.304;2023-02-04T01:57:42;102210.00;;;11.53;93.16
63652;BME280;49801;37.536;-122.304;2023-02-04T01:58:10;102218.28;;;11.61;93.41
63652;BME280;49801;37.536;-122.304;2023-02-04T01:58:37;102222.69;;;11.62;93.65
63652;BME280;49801;37.536;-122.304;2023-02-04T01:59:11;102220.69;;;11.64;93.78
63652;BME280;49801;37.536;-122.304;2023-02-04T01:59:37;102219.97;;;11.62;93.60
63652;BME280;49801;37.536;-122.304;2023-02-04T02:00:16;102208.69;;;11.57;93.60
63652;BME280;49801;37.536;-122.304;2023-02-04T02:00:43;102219.25;;;11.60;93.49
63652;BME280;49801;37.536;-122.304;2023-02-04T02:01:12;102221.41;;;11.56;93.30
63652;BME280;49801;37.536;-122.304;2023-02-04T02:01:50;102217.72;;;11.57;93.33
63652;BME280;49801;37.536;-122.304;2023-02-04T02:03:09;102216.81;;;11.57;93.89
63652;BME280;49801;37.536;-122.304;2023-02-04T02:03:38;102214.84;;;11.59;93.55
63652;BME280;49801;37.536;-122.304;2023-02-04T02:04:04;102220.28;;;11.59;94.02
63652;BME280;49801;37.536;-122.304;2023-02-04T02:04:32;102209.13;;;11.52;93.83
63652;BME280;49801;37.536;-122.304;2023-02-04T02:04:58;102215.56;;;11.61;93.77
63652;BME280;49801;37.536;-122.304;2023-02-04T02:06:09;102219.97;;;11.62;94.24
63652;BME280;49801;37.536;-122.304;2023-02-04T02:06:38;102215.56;;;11.61;93.79
63652;BME280;49801;37.536;-122.304;2023-02-04T02:07:07;102215.13;;;11.56;93.79
63652;BME280;49801;37.536;-122.304;2023-02-04T02:07:35;102211.72;;;11.54;93.44
63652;BME280;49801;37.536;-122.304;2023-02-04T02:08:02;102206.28;;;11.54;93.64
63652;BME280;49801;37.536;-122.304;2023-02-04T02:08:30;102215.41;;;11.53;93.70
63652;BME280;49801;37.536;-122.304;2023-02-04T02:08:56;102193.13;;;11.39;93.73
63652;BME280;49801;37.536;-122.304;2023-02-04T02:09:24;102193.13;;;11.39;93.59
63652;BME280;49801;37.536;-122.304;2023-02-04T02:09:50;102218.84;;;11.55;93.90
63652;BME280;49801;37.536;-122.304;2023-02-04T02:10:17;102218.00;;;11.54;93.55
63652;BME280;49801;37.536;-122.304;2023-02-04T02:10:46;102220.84;;;11.53;93.55
63652;BME280;49801;37.536;-122.304;2023-02-04T02:11:13;102216.25;;;11.53;93.71
63652;BME280;49801;37.536;-122.304;2023-02-04T02:11:39;102210.00;;;11.53;93.83
63652;BME280;49801;37.536;-122.304;2023-02-04T02:12:05;102224.25;;;11.55;93.85
63652;BME280;49801;37.536;-122.304;2023-02-04T02:12:31;102215.28;;;11.54;94.13
63652;BME280;49801;37.536;-122.304;2023-02-04T02:12:58;102217.13;;;11.54;93.99
63652;BME280;49801;37.536;-122.304;2023-02-04T02:13:24;102220.41;;;11.57;94.10
63652;BME280;49801;37.536;-122.304;2023-02-04T02:13:50;102217.84;;;11.56;93.94
63652;BME280;49801;37.536;-122.304;2023-02-04T02:14:16;102220.28;;;11.49;93.69
63652;BME280;49801;37.536;-122.304;2023-02-04T02:14:43;102214.00;;;11.49;94.20
63652;BME280;49801;37.536;-122.304;2023-02-04T02:15:10;102203.44;;;11.45;94.26
63652;BME280;49801;37.536;-122.304;2023-02-04T02:15:37;102225.56;;;11.60;94.44